Hlavní strana
METAR-TAF:

METAR-TAF

Letiště :

Luanda, Angola

zeměpisná šířka: 08-51S, zeměpisná délka: 013-14E, výška: 74 m

Aktuální stav počasí

Zpráva byla vytvořena před 56 minutami, v 02:00 UTC
Jižní vítr 5 kt
Teplota 27°C
Vlhkost vzduchu 84%
Tlak 1009 hPa
Viditelnost: 8000 m

METAR: FNLU 060200Z 17005KT 8000 FEW20 27/24 Q1009

Čas: 03:56 (02:56 UTC)

Předpověď počasí

Zpráva byla vytvořena před 3 hodinami a 56 minutami, v 23:00 UTC
Předpověď platná od 06 v 00 UTC do 07 v 06 UTC
Jižní vítr 7 kt
Viditelnost: 9000 m
Skoro jasno ve výšce 6200 ft
Oblačno až skoro zataženo ve výšce 4000 ft
Dočasný
od 06 v 03 UTC do 06 v 07 UTC
Jihojihovýchodní vítr 6 kt
Viditelnost: 8000 m
Polojasno ve výšce 1800 ft
Skoro jasno ve výšce 2200 ft
Změna
od 06 v 10 UTC do 06 v 12 UTC
Západojihozápadní vítr 11 kt
Viditelnost 10 km a více
Skoro jasno ve výšce 1200 ft

TAF: FNLU 052300Z 0600/0706 18007KT 9000 FEW062 BKN040 TEMPO 0603/0607 15006KT 8000 SCT018 FEW022 BECMG 0610/0612 24011KT 9999 FEW012

Stav a předpovědi počasí z více než 4 000 letišť (zprávy METAR a TAF).

Červené a žluté tečky na mapě představují dostupné meteorologické stanice.

Když kurzor umístíte na tečku, zobrazí se název stanice.

Pak kliknutím zobrazíte stav a předpověď počasí.

Chcete-li změnit mapu, kliknutím na zelené tlačítko se znaménkem +mapu přiblížíte, kliknutím na zelené tlačítko se znaménkem – mapu oddálíte a kliknutím na zelené šipky přejdete na sousední mapy.


METAR-TAF: